Terminal Aerodrome Forecast
Issued by NWS Wakefield, VA

Home | Current Version | Previous Version | Text Only | Print | Product List | Glossary On
Versions: 1 2 3 4 5 6 7 8 9 10 11 12 13 14 15
000
FTUS41 KAKQ 231100
TAFRIC
TAF
KRIC 231129Z 2312/2412 02008KT P6SM BKN200
     FM231700 03007KT P6SM FEW040 BKN250
     FM232300 02004KT P6SM SCT200=

USA.gov is the U.S. government's official web portal to all federal, state and local government web resources and services.